createdAt,value
2019-03-10T00:01:04.422Z,65.14
2019-03-10T00:03:32.332Z,65.97
2019-03-10T00:06:00.394Z,66.55
2019-03-10T00:08:30.566Z,66.31
2019-03-10T00:10:58.545Z,65.67
2019-03-10T00:13:27.481Z,66.52
2019-03-10T00:15:55.787Z,65.80
2019-03-10T00:18:23.675Z,64.96
2019-03-10T00:20:51.714Z,65.27
2019-03-10T00:23:19.790Z,64.67
2019-03-10T00:25:47.747Z,64.93
2019-03-10T00:28:18.498Z,64.51
2019-03-10T00:30:46.459Z,65.20
2019-03-10T00:33:14.464Z,64.68
2019-03-10T00:35:42.533Z,64.28
2019-03-10T00:38:10.831Z,65.18
2019-03-10T00:41:04.720Z,64.60
2019-03-10T00:44:19.873Z,64.26
2019-03-10T00:47:32.121Z,63.22
2019-03-10T00:50:35.717Z,63.70
2019-03-10T00:53:03.697Z,62.92
2019-03-10T00:55:31.592Z,63.12
2019-03-10T00:57:59.590Z,63.31
2019-03-10T01:00:27.648Z,63.57
2019-03-10T01:02:58.255Z,64.01
2019-03-10T01:05:26.215Z,64.40
2019-03-10T01:07:56.627Z,64.48
2019-03-10T01:10:24.453Z,64.17
2019-03-10T01:12:52.837Z,65.66
2019-03-10T01:15:20.878Z,64.91
2019-03-10T01:17:50.765Z,63.82
2019-03-10T01:20:18.861Z,62.81
2019-03-10T01:22:46.754Z,63.45
2019-03-10T01:25:17.404Z,63.26
2019-03-10T01:27:45.334Z,62.41
2019-03-10T01:30:15.898Z,62.60
2019-03-10T01:33:25.193Z,63.01
2019-03-10T01:35:56.039Z,62.43
2019-03-10T01:38:23.896Z,61.82
2019-03-10T01:40:52.204Z,62.70
2019-03-10T01:43:20.002Z,63.11
2019-03-10T01:45:50.040Z,62.89
2019-03-10T01:48:17.920Z,63.12
2019-03-10T01:50:45.971Z,62.69
2019-03-10T01:53:14.152Z,63.12
2019-03-10T01:55:41.990Z,63.37
2019-03-10T01:58:09.896Z,63.27
2019-03-10T02:00:37.858Z,63.21
2019-03-10T02:03:05.743Z,63.33
2019-03-10T02:05:33.702Z,63.95
2019-03-10T02:08:01.601Z,64.02
2019-03-10T02:10:29.435Z,64.61
2019-03-10T02:12:57.237Z,64.39
2019-03-10T02:15:28.527Z,64.43
2019-03-10T02:17:56.423Z,64.70
2019-03-10T02:20:26.907Z,64.44
2019-03-10T02:22:55.732Z,64.79
2019-03-10T02:25:23.819Z,64.68
2019-03-10T02:27:51.741Z,64.92
2019-03-10T02:30:19.782Z,65.33
2019-03-10T02:32:47.719Z,65.52
2019-03-10T02:35:15.682Z,65.42
2019-03-10T02:37:43.789Z,65.98
2019-03-10T02:40:11.763Z,66.06
2019-03-10T02:42:44.032Z,66.17
2019-03-10T02:45:12.102Z,65.87
2019-03-10T02:47:40.036Z,66.07
2019-03-10T02:50:08.356Z,66.24
2019-03-10T02:52:36.458Z,65.76
2019-03-10T02:55:04.816Z,66.10
2019-03-10T02:57:33.664Z,66.30
2019-03-10T03:00:01.549Z,66.43
2019-03-10T03:02:31.801Z,66.63
2019-03-10T03:04:59.606Z,66.82
2019-03-10T03:07:27.571Z,67.13
2019-03-10T03:09:55.490Z,66.96
2019-03-10T03:12:23.938Z,67.05
2019-03-10T03:14:52.502Z,67.61
2019-03-10T03:17:20.453Z,67.89
2019-03-10T03:19:48.382Z,67.42
2019-03-10T03:22:19.129Z,67.98
2019-03-10T03:24:47.042Z,68.51
2019-03-10T03:27:16.214Z,68.35
2019-03-10T03:29:44.023Z,68.84
2019-03-10T03:32:11.886Z,68.74
2019-03-10T03:34:39.682Z,69.16
2019-03-10T03:37:09.845Z,69.60
2019-03-10T03:39:46.317Z,69.17
2019-03-10T03:42:16.543Z,69.49
2019-03-10T03:44:44.445Z,69.27
2019-03-10T03:47:12.534Z,69.03
2019-03-10T03:49:42.168Z,68.86
2019-03-10T03:52:10.095Z,69.24
2019-03-10T03:54:38.143Z,69.00
2019-03-10T03:57:06.173Z,69.03
2019-03-10T03:59:34.573Z,68.58
2019-03-10T04:02:12.927Z,68.72
2019-03-10T04:04:40.738Z,68.62
2019-03-10T04:07:08.599Z,68.08
2019-03-10T04:09:36.494Z,68.11
2019-03-10T04:12:04.564Z,67.83
2019-03-10T04:14:32.651Z,67.77
2019-03-10T04:17:00.620Z,67.53
2019-03-10T04:19:28.417Z,67.55
2019-03-10T04:21:59.012Z,67.47
2019-03-10T04:24:26.823Z,67.33
2019-03-10T04:26:54.622Z,67.52
2019-03-10T04:29:22.480Z,67.19
2019-03-10T04:31:51.003Z,67.17
2019-03-10T04:34:18.829Z,66.83
2019-03-10T04:36:46.605Z,66.45
2019-03-10T04:39:14.569Z,66.36
2019-03-10T04:41:42.377Z,66.51
2019-03-10T04:44:10.241Z,66.49
2019-03-10T04:46:38.152Z,66.80
2019-03-10T04:49:06.006Z,66.28
2019-03-10T04:51:36.991Z,66.19
2019-03-10T04:54:07.838Z,66.29
2019-03-10T04:56:59.055Z,66.16
2019-03-10T04:59:26.843Z,66.20
2019-03-10T05:01:54.720Z,66.62
2019-03-10T05:04:22.809Z,66.70
2019-03-10T05:06:50.728Z,66.41
2019-03-10T05:09:18.564Z,66.76
2019-03-10T05:11:46.488Z,66.55
2019-03-10T05:14:14.314Z,66.52
2019-03-10T05:16:42.331Z,66.70
2019-03-10T05:19:13.438Z,67.13
2019-03-10T05:21:41.323Z,67.07
2019-03-10T05:24:12.297Z,66.97
2019-03-10T05:26:40.111Z,66.64
2019-03-10T05:29:07.971Z,66.72
2019-03-10T05:31:35.894Z,66.94
2019-03-10T05:34:03.919Z,66.83
2019-03-10T05:36:31.746Z,66.52
2019-03-10T05:39:00.101Z,66.33
2019-03-10T05:41:27.990Z,66.43
2019-03-10T05:43:58.930Z,66.26
2019-03-10T05:46:26.819Z,66.37
2019-03-10T05:48:54.674Z,66.43
2019-03-10T05:51:23.039Z,66.47
2019-03-10T05:53:56.641Z,66.79
2019-03-10T05:56:24.479Z,66.67
2019-03-10T05:58:55.196Z,66.68
2019-03-10T06:01:23.084Z,66.66
2019-03-10T06:03:50.927Z,66.57
2019-03-10T06:06:18.752Z,66.44
2019-03-10T06:08:46.732Z,65.99
2019-03-10T06:11:14.643Z,65.82
2019-03-10T06:13:42.507Z,65.92
2019-03-10T06:16:10.582Z,66.20
2019-03-10T06:18:41.208Z,66.22
2019-03-10T06:21:09.172Z,66.22
2019-03-10T06:23:40.807Z,66.11
2019-03-10T06:26:08.611Z,66.20
2019-03-10T06:28:36.985Z,66.09
2019-03-10T06:31:04.815Z,66.25
2019-03-10T06:33:33.745Z,66.48
2019-03-10T06:36:01.684Z,66.10
2019-03-10T06:38:29.575Z,66.13
2019-03-10T06:40:57.371Z,66.19
2019-03-10T06:43:25.375Z,66.15
2019-03-10T06:45:53.337Z,66.07
2019-03-10T06:48:21.246Z,66.14
2019-03-10T06:50:49.229Z,65.93
2019-03-10T06:53:17.139Z,65.71
2019-03-10T06:55:47.752Z,65.72
2019-03-10T06:58:17.895Z,65.87
2019-03-10T07:00:45.883Z,66.17
2019-03-10T07:03:13.731Z,66.45
2019-03-10T07:05:44.320Z,66.71
2019-03-10T07:08:12.249Z,66.48
2019-03-10T07:10:40.235Z,66.30
2019-03-10T07:13:08.139Z,66.63
2019-03-10T07:15:36.150Z,66.60
2019-03-10T07:18:04.203Z,66.14
2019-03-10T07:20:34.263Z,66.17
2019-03-10T07:23:03.874Z,66.48
2019-03-10T07:25:31.856Z,66.22
2019-03-10T07:28:18.230Z,65.94
2019-03-10T07:31:19.719Z,66.26
2019-03-10T07:34:07.066Z,65.98
2019-03-10T07:37:00.215Z,66.16
2019-03-10T07:39:44.702Z,66.32
2019-03-10T07:42:26.690Z,66.42
2019-03-10T07:45:33.021Z,65.96
2019-03-10T07:48:15.944Z,65.81
2019-03-10T07:50:56.446Z,65.71
2019-03-10T07:53:55.825Z,65.60
2019-03-10T07:56:41.747Z,65.68
2019-03-10T07:59:34.767Z,65.78
2019-03-10T08:02:24.833Z,66.58
2019-03-10T08:05:14.777Z,67.05
2019-03-10T08:08:04.967Z,65.72
2019-03-10T08:10:57.031Z,66.43
2019-03-10T08:13:47.163Z,66.29
2019-03-10T08:16:43.373Z,66.06
2019-03-10T08:19:34.935Z,65.36
2019-03-10T08:22:28.065Z,64.58
2019-03-10T08:25:17.388Z,64.50
2019-03-10T08:28:01.848Z,64.08
2019-03-10T08:30:44.543Z,63.60
2019-03-10T08:33:35.007Z,64.10
2019-03-10T08:36:26.790Z,62.77
2019-03-10T08:39:05.841Z,62.74
2019-03-10T08:41:51.979Z,63.38
2019-03-10T08:44:37.910Z,63.25
2019-03-10T08:47:11.936Z,62.66
2019-03-10T08:50:03.518Z,62.23
2019-03-10T08:52:38.501Z,62.25
2019-03-10T08:55:12.988Z,60.76
2019-03-10T08:57:59.616Z,61.77
2019-03-10T09:00:42.597Z,61.79
2019-03-10T09:03:28.293Z,61.69
2019-03-10T09:06:10.082Z,61.41
2019-03-10T09:09:12.602Z,61.80
2019-03-10T09:12:12.590Z,60.76
2019-03-10T09:15:02.569Z,60.77
2019-03-10T09:17:41.561Z,60.62
2019-03-10T09:20:39.941Z,60.67
2019-03-10T09:23:25.111Z,59.91
2019-03-10T09:26:15.063Z,58.96
2019-03-10T09:29:21.491Z,59.10
2019-03-10T09:32:01.180Z,59.47
2019-03-10T09:35:00.427Z,59.79
2019-03-10T09:37:38.702Z,60.66
2019-03-10T09:40:28.879Z,60.33
2019-03-10T09:43:06.545Z,60.06
2019-03-10T09:46:00.181Z,60.04
2019-03-10T09:48:50.592Z,59.94
2019-03-10T09:51:27.524Z,60.22
2019-03-10T09:54:26.947Z,60.27
2019-03-10T09:57:13.446Z,60.07
2019-03-10T10:00:16.058Z,59.98
2019-03-10T10:03:22.719Z,59.76
2019-03-10T10:06:00.656Z,58.42
2019-03-10T10:08:46.881Z,58.13
2019-03-10T10:11:37.048Z,58.14
2019-03-10T10:14:25.126Z,58.31
2019-03-10T10:17:10.982Z,58.82
2019-03-10T10:20:04.958Z,58.32
2019-03-10T10:22:42.172Z,58.72
2019-03-10T10:25:27.689Z,57.33
2019-03-10T10:28:17.695Z,57.98
2019-03-10T10:31:07.673Z,58.00
2019-03-10T10:33:54.991Z,58.19
2019-03-10T10:36:38.579Z,58.08
2019-03-10T10:39:30.277Z,57.83
2019-03-10T10:42:27.976Z,57.26
2019-03-10T10:45:05.227Z,57.46
2019-03-10T10:48:07.459Z,57.05
2019-03-10T10:51:13.060Z,57.59
2019-03-10T10:54:00.561Z,58.58
2019-03-10T10:56:46.428Z,59.12
2019-03-10T10:59:36.727Z,59.00
2019-03-10T11:02:24.102Z,59.54
2019-03-10T11:05:14.157Z,59.20
2019-03-10T11:07:56.419Z,59.19
2019-03-10T11:10:55.986Z,58.26
2019-03-10T11:13:40.380Z,58.33
2019-03-10T11:16:16.884Z,58.41
2019-03-10T11:19:03.237Z,58.37
2019-03-10T11:21:50.659Z,57.75
2019-03-10T11:24:32.929Z,58.40
2019-03-10T11:27:32.491Z,58.40
2019-03-10T11:30:26.887Z,59.13
2019-03-10T11:33:12.995Z,59.03
2019-03-10T11:36:00.334Z,58.84
2019-03-10T11:38:53.611Z,58.80
2019-03-10T11:41:34.161Z,58.94
2019-03-10T11:44:21.895Z,59.14
2019-03-10T11:46:58.026Z,59.00
2019-03-10T11:49:51.537Z,59.80
2019-03-10T11:52:38.093Z,60.06
2019-03-10T11:55:24.420Z,60.39
2019-03-10T11:58:06.933Z,60.71
2019-03-10T12:00:52.957Z,61.12
2019-03-10T12:03:31.527Z,59.71
2019-03-10T12:06:22.058Z,60.41
2019-03-10T12:09:09.636Z,61.31
2019-03-10T12:11:37.698Z,63.26
2019-03-10T12:14:05.779Z,62.98
2019-03-10T12:16:33.725Z,62.26
2019-03-10T12:19:02.374Z,64.21
2019-03-10T12:21:30.266Z,64.31
2019-03-10T12:23:58.348Z,65.47
2019-03-10T12:26:26.261Z,66.61
2019-03-10T12:28:54.189Z,66.51
2019-03-10T12:31:22.136Z,67.02
2019-03-10T12:33:50.408Z,67.16
2019-03-10T12:36:18.385Z,67.92
2019-03-10T12:38:46.332Z,68.09
2019-03-10T12:41:14.187Z,68.80
2019-03-10T12:43:41.953Z,69.10
2019-03-10T12:46:09.790Z,69.61
2019-03-10T12:48:37.708Z,70.71
2019-03-10T12:51:05.753Z,71.25
2019-03-10T12:53:33.670Z,72.00
2019-03-10T12:56:01.750Z,72.11
2019-03-10T12:58:29.700Z,72.88
2019-03-10T13:01:05.510Z,73.22
2019-03-10T13:03:27.647Z,74.75
2019-03-10T13:05:57.051Z,74.67
2019-03-10T13:08:31.982Z,75.81
2019-03-10T13:11:00.035Z,76.23
2019-03-10T13:13:27.869Z,75.57
2019-03-10T13:15:56.778Z,76.17
2019-03-10T13:18:24.752Z,75.65
2019-03-10T13:20:52.801Z,75.49
2019-03-10T13:23:20.589Z,75.66
2019-03-10T13:25:48.549Z,76.41
2019-03-10T13:28:16.431Z,77.45
2019-03-10T13:30:44.546Z,77.27
2019-03-10T13:33:12.478Z,77.62
2019-03-10T13:35:40.465Z,77.52
2019-03-10T13:38:10.584Z,78.25
2019-03-10T13:40:38.410Z,78.72
2019-03-10T13:43:06.432Z,79.36
2019-03-10T13:45:34.509Z,79.26
2019-03-10T13:48:02.482Z,80.86
2019-03-10T13:50:31.261Z,81.91
2019-03-10T13:52:59.412Z,80.71
2019-03-10T13:55:27.493Z,80.61
2019-03-10T13:57:55.377Z,81.63
2019-03-10T14:00:26.979Z,82.78
2019-03-10T14:02:55.072Z,81.07
2019-03-10T14:05:24.673Z,80.66
2019-03-10T14:07:52.834Z,82.31
2019-03-10T14:10:26.579Z,82.41
2019-03-10T14:12:54.579Z,82.72
2019-03-10T14:15:23.083Z,83.26
2019-03-10T14:17:51.282Z,83.47
2019-03-10T14:20:19.286Z,83.32
2019-03-10T14:22:47.185Z,84.07
2019-03-10T14:25:15.658Z,83.23
2019-03-10T14:27:43.730Z,83.54
2019-03-10T14:30:11.891Z,83.13
2019-03-10T14:32:39.786Z,96.91
2019-03-10T14:35:08.154Z,96.50
2019-03-10T14:37:36.127Z,86.85
2019-03-10T14:40:05.017Z,85.56
2019-03-10T14:42:33.862Z,85.09
2019-03-10T14:45:01.774Z,85.53
2019-03-10T14:47:29.708Z,85.52
2019-03-10T14:49:57.630Z,85.85
2019-03-10T14:52:29.341Z,85.54
2019-03-10T14:54:57.358Z,85.16
2019-03-10T14:57:25.365Z,85.82
2019-03-10T14:59:53.759Z,84.98
2019-03-10T15:02:21.838Z,85.91
2019-03-10T15:04:49.719Z,86.19
2019-03-10T15:07:18.599Z,86.77
2019-03-10T15:09:46.412Z,87.43
2019-03-10T15:12:14.480Z,87.56
2019-03-10T15:14:42.278Z,88.20
2019-03-10T15:17:10.996Z,88.13
2019-03-10T15:19:38.961Z,87.27
2019-03-10T15:22:06.906Z,86.95
2019-03-10T15:24:34.947Z,86.38
2019-03-10T15:27:02.905Z,86.43
2019-03-10T15:29:30.832Z,87.06
2019-03-10T15:31:58.974Z,86.75
2019-03-10T15:34:26.757Z,86.74
2019-03-10T15:36:54.606Z,86.11
2019-03-10T15:39:22.597Z,87.48
2019-03-10T15:41:50.437Z,87.91
2019-03-10T15:44:20.920Z,87.95
2019-03-10T15:46:48.996Z,87.82
2019-03-10T15:49:16.830Z,87.16
2019-03-10T15:51:44.812Z,87.26
2019-03-10T15:54:13.027Z,88.20
2019-03-10T15:56:40.991Z,88.96
2019-03-10T15:59:08.891Z,87.79
2019-03-10T16:01:36.854Z,88.09
2019-03-10T16:04:18.956Z,86.74
2019-03-10T16:06:47.378Z,86.99
2019-03-10T16:09:15.385Z,87.13
2019-03-10T16:11:43.824Z,87.04
2019-03-10T16:14:12.074Z,88.39
2019-03-10T16:16:43.592Z,88.11
2019-03-10T16:19:11.531Z,88.51
2019-03-10T16:21:39.698Z,87.50
2019-03-10T16:24:07.736Z,86.99
2019-03-10T16:26:35.759Z,88.08
2019-03-10T16:29:03.653Z,87.50
2019-03-10T16:31:31.539Z,88.50
2019-03-10T16:33:59.380Z,88.40
2019-03-10T16:36:27.325Z,87.49
2019-03-10T16:38:55.181Z,87.28
2019-03-10T16:41:23.001Z,87.23
2019-03-10T16:43:50.855Z,87.75
2019-03-10T16:46:24.786Z,87.42
2019-03-10T16:48:52.838Z,87.66
2019-03-10T16:51:20.804Z,87.76
2019-03-10T16:53:48.865Z,88.36
2019-03-10T16:56:18.668Z,88.51
2019-03-10T16:58:46.728Z,88.91
2019-03-10T17:01:14.619Z,88.22
2019-03-10T17:03:42.698Z,88.45
2019-03-10T17:06:10.480Z,89.97
2019-03-10T17:08:39.015Z,90.38
2019-03-10T17:11:06.990Z,90.02
2019-03-10T17:13:35.276Z,90.01
2019-03-10T17:16:03.401Z,90.73
2019-03-10T17:18:31.395Z,90.45
2019-03-10T17:20:59.271Z,91.29
2019-03-10T17:23:28.641Z,90.58
2019-03-10T17:25:57.407Z,89.72
2019-03-10T17:28:25.365Z,90.57
2019-03-10T17:30:53.404Z,90.84
2019-03-10T17:33:22.008Z,90.33
2019-03-10T17:35:49.945Z,89.74
2019-03-10T17:38:17.901Z,89.30
2019-03-10T17:40:45.799Z,88.73
2019-03-10T17:43:13.910Z,89.26
2019-03-10T17:45:41.903Z,89.00
2019-03-10T17:48:09.767Z,88.28
2019-03-10T17:50:37.672Z,88.54
2019-03-10T17:53:07.487Z,87.92
2019-03-10T17:55:38.006Z,88.09
2019-03-10T17:58:06.092Z,87.66
2019-03-10T18:00:34.518Z,87.64
2019-03-10T18:03:02.368Z,87.14
2019-03-10T18:05:30.243Z,87.92
2019-03-10T18:07:58.115Z,87.25
2019-03-10T18:10:27.003Z,87.67
2019-03-10T18:12:55.073Z,87.39
2019-03-10T18:15:23.069Z,87.86
2019-03-10T18:17:51.069Z,87.51
2019-03-10T18:20:19.135Z,87.47
2019-03-10T18:22:47.419Z,87.81
2019-03-10T18:25:15.661Z,87.52
2019-03-10T18:27:43.891Z,87.56
2019-03-10T18:30:14.288Z,87.24
2019-03-10T18:32:42.329Z,86.98
2019-03-10T18:35:10.372Z,87.01
2019-03-10T18:37:38.295Z,87.00
2019-03-10T18:40:11.875Z,86.68
2019-03-10T18:42:42.619Z,86.92
2019-03-10T18:45:15.120Z,86.99
2019-03-10T18:47:43.204Z,86.58
2019-03-10T18:50:14.740Z,86.28
2019-03-10T18:52:43.830Z,86.17
2019-03-10T18:55:16.135Z,86.20
2019-03-10T18:57:44.404Z,86.00
2019-03-10T19:00:18.159Z,85.66
2019-03-10T19:02:48.377Z,85.24
2019-03-10T19:05:16.423Z,85.45
2019-03-10T19:07:44.407Z,85.14
2019-03-10T19:10:14.922Z,84.82
2019-03-10T19:12:44.345Z,86.09
2019-03-10T19:15:14.171Z,84.97
2019-03-10T19:17:42.214Z,85.13
2019-03-10T19:20:11.009Z,84.35
2019-03-10T19:22:47.764Z,84.07
2019-03-10T19:25:15.850Z,83.90
2019-03-10T19:27:43.744Z,84.04
2019-03-10T19:30:13.691Z,84.17
2019-03-10T19:32:41.681Z,83.89
2019-03-10T19:35:10.175Z,84.67
2019-03-10T19:37:43.061Z,84.76
2019-03-10T19:40:15.273Z,85.06
2019-03-10T19:42:43.363Z,84.14
2019-03-10T19:45:12.525Z,83.56
2019-03-10T19:47:40.524Z,83.28
2019-03-10T19:50:10.164Z,82.98
2019-03-10T19:52:40.335Z,83.08
2019-03-10T19:55:13.602Z,82.14
2019-03-10T19:57:41.490Z,81.90
2019-03-10T20:00:16.294Z,81.74
2019-03-10T20:02:44.652Z,81.54
2019-03-10T20:05:12.900Z,80.98
2019-03-10T20:07:40.977Z,81.64
2019-03-10T20:10:10.112Z,81.83
2019-03-10T20:12:38.131Z,81.63
2019-03-10T20:15:07.512Z,80.59
2019-03-10T20:17:35.997Z,78.66
2019-03-10T20:20:04.641Z,75.95
2019-03-10T20:22:32.550Z,74.92
2019-03-10T20:25:08.835Z,74.37
2019-03-10T20:27:36.664Z,74.43
2019-03-10T20:30:05.183Z,74.42
2019-03-10T20:32:33.132Z,74.44
2019-03-10T20:35:00.996Z,74.32
2019-03-10T20:37:28.788Z,74.83
2019-03-10T20:39:57.250Z,73.82
2019-03-10T20:42:25.341Z,73.34
2019-03-10T20:44:53.190Z,72.57
2019-03-10T20:47:21.003Z,72.67
2019-03-10T20:49:49.149Z,70.85
2019-03-10T20:52:17.182Z,69.95
2019-03-10T20:54:45.546Z,69.69
2019-03-10T20:57:14.272Z,66.56
2019-03-10T20:59:42.940Z,65.48
2019-03-10T21:02:10.870Z,65.66
2019-03-10T21:04:38.968Z,63.91
2019-03-10T21:07:07.108Z,62.70
2019-03-10T21:09:35.136Z,60.52
2019-03-10T21:12:03.142Z,59.75
2019-03-10T21:14:30.986Z,58.20
2019-03-10T21:16:59.025Z,59.35
2019-03-10T21:19:26.983Z,57.03
2019-03-10T21:21:55.080Z,57.02
2019-03-10T21:24:23.308Z,57.56
2019-03-10T21:26:52.623Z,57.24
2019-03-10T21:29:20.641Z,55.49
2019-03-10T21:31:49.050Z,56.43
2019-03-10T21:34:17.001Z,55.24
2019-03-10T21:36:45.049Z,55.64
2019-03-10T21:39:13.054Z,54.86
2019-03-10T21:41:41.171Z,55.80
2019-03-10T21:44:09.361Z,55.17
2019-03-10T21:46:37.520Z,56.03
2019-03-10T21:49:05.422Z,56.41
2019-03-10T21:51:33.368Z,55.74
2019-03-10T21:54:01.365Z,54.95
2019-03-10T21:56:29.348Z,55.21
2019-03-10T21:58:57.138Z,54.75
2019-03-10T22:01:25.091Z,54.67
2019-03-10T22:03:52.997Z,54.39
2019-03-10T22:06:21.345Z,54.51
2019-03-10T22:08:49.394Z,53.94
2019-03-10T22:11:17.326Z,54.27
2019-03-10T22:13:46.882Z,54.21
2019-03-10T22:16:15.026Z,53.61
2019-03-10T22:18:42.976Z,53.59
2019-03-10T22:21:11.113Z,54.17
2019-03-10T22:23:40.104Z,52.18
2019-03-10T22:26:07.965Z,52.24
2019-03-10T22:28:35.897Z,52.44
2019-03-10T22:31:03.895Z,52.40
2019-03-10T22:33:31.730Z,52.53
2019-03-10T22:35:59.586Z,52.71
2019-03-10T22:38:27.370Z,52.61
2019-03-10T22:40:55.200Z,52.45
2019-03-10T22:43:23.207Z,52.54
2019-03-10T22:45:51.307Z,53.25
2019-03-10T22:48:19.131Z,53.05
2019-03-10T22:50:47.021Z,52.43
2019-03-10T22:53:15.087Z,51.96
2019-03-10T22:55:42.989Z,52.01
2019-03-10T22:58:10.855Z,51.62
2019-03-10T23:00:45.928Z,51.74
2019-03-10T23:03:14.121Z,52.24
2019-03-10T23:05:42.627Z,53.00
2019-03-10T23:08:10.650Z,53.24
2019-03-10T23:10:38.531Z,53.80
2019-03-10T23:13:06.484Z,54.28
2019-03-10T23:15:34.474Z,54.53
2019-03-10T23:18:02.483Z,54.41
2019-03-10T23:20:30.362Z,54.60
2019-03-10T23:22:58.427Z,52.85
2019-03-10T23:25:26.223Z,52.92
2019-03-10T23:27:54.143Z,54.35
2019-03-10T23:30:22.638Z,55.36
2019-03-10T23:32:50.717Z,56.49
2019-03-10T23:35:18.627Z,58.42
2019-03-10T23:37:47.217Z,61.00
2019-03-10T23:40:15.836Z,61.72
2019-03-10T23:42:43.798Z,62.51
2019-03-10T23:45:11.958Z,63.80
2019-03-10T23:47:39.917Z,65.69
2019-03-10T23:50:08.733Z,69.39
2019-03-10T23:52:36.810Z,71.90
2019-03-10T23:55:04.928Z,76.91
2019-03-10T23:57:32.909Z,80.48
